CCGS Louis S. St-Laurent — CGBN — position and weather

sailwx.info

Track history (hours):
 
Tides and Currents Weather Stations Pressure Air Temp Water Temp Dewpoint Dewpoint Depression Visibility Wind Speed Wind Dir Waves Ship Positions

Oceanographic research ship CCGS Louis S. St-Laurent (Canada)

Detailed information on ship capabilities available from ARCUS's ALIAS (Arctic Logistics Information and Support) project.

Last reported at 2017-Mar-23 23:00 UTC. Time now 2017-Mar-24 00:00 UTC.
Position N 46°48' W 071°12'.

Length 119.63 m; beam 24.38 m; draft 9.9 m.

MMSI: 316165000.

Wind from 270 at 8 knots

Barometer 1029.9 mb
Air temperature -2.1 ° C
Dewpoint -15.7 ° C

Date/timePositionNaut miles runAvg speedWind from/ knotsBaromVisibWave heightAir tempDewpointWater temp
2017-Mar-23 23:00N 46°48' W 071°12'0 0.0 270 / 81029.9 -2.1-15.7
2017-Mar-23 22:00N 46°48' W 071°12'0 0.0 260 / 71029.7 -1.5-16.6
2017-Mar-23 21:00N 46°48' W 071°12'0 0.0 270 / 81029.7 -1.9-17.0
2017-Mar-23 20:00N 46°48' W 071°12'0 0.0 300 / 101029.6 -2.7-17.6
2017-Mar-23 19:00N 46°48' W 071°12'0 0.0 280 / 101029.5 -3.3-18.9
2017-Mar-23 18:00N 46°48' W 071°12'0 0.0 250 / 91029.7 -4.4-18.5
2017-Mar-23 17:00N 46°48' W 071°12'0 0.0 250 / 91030.2 -5.4-17.3
2017-Mar-23 16:00N 46°48' W 071°12'0 0.0 220 / 111030.5 -6.7-18.0
2017-Mar-23 15:00N 46°48' W 071°12'0 0.0 220 / 91031.1 -8.9-17.7
2017-Mar-23 14:00N 46°48' W 071°12'0 0.0 240 / 91031.4 -10.3-18.5
2017-Mar-23 13:00N 46°48' W 071°12'0 0.0 240 / 91031.1 -11.0-18.7
2017-Mar-23 12:00N 46°48' W 071°12'0 0.0 260 / 71030.4 -11.8-18.2
2017-Mar-23 11:00N 46°48' W 071°12'0 0.0 240 / 81029.9 -12.1-18.7
2017-Mar-23 10:00N 46°48' W 071°12'0 0.0 280 / 81029.1 -11.4-19.0
2017-Mar-23 09:00N 46°48' W 071°12'0 0.0 280 / 81028.3 -11.1-18.9
2017-Mar-23 08:00N 46°48' W 071°12'0 0.0 270 / 61027.9 -10.8-19.2
2017-Mar-23 07:00N 46°48' W 071°12'0 0.0 300 / 71027.7 -10.4-19.3
2017-Mar-23 06:00N 46°48' W 071°12'0 0.0 320 / 101027.3 -10.0-18.5
2017-Mar-23 05:00N 46°48' W 071°12'0 0.0 300 / 121027.1 -9.9-19.5
2017-Mar-23 04:00N 46°48' W 071°12'0 0.0 290 / 91027.2 -9.8-19.8
2017-Mar-23 03:00N 46°48' W 071°12'0 0.0 300 / 81026.9 -9.4-19.3
2017-Mar-23 02:00N 46°48' W 071°12'0 0.0 280 / 71026.9 -9.2-19.9
2017-Mar-23 01:00N 46°48' W 071°12'0 0.0 300 / 61026.3 -8.9-19.1
2017-Mar-23 00:00N 46°48' W 071°12'0 0.0 320 / 61025.3 -8.5-19.0
2017-Mar-22 23:00N 46°48' W 071°12'0 0.0 330 / 91023.9 -7.9-19.3
2017-Mar-22 22:00N 46°48' W 071°12'0 0.0 330 / 101022.9 -6.9-18.2
2017-Mar-22 21:00N 46°48' W 071°12'0 0.0 330 / 121021.7 -6.8-18.9
2017-Mar-22 20:00N 46°48' W 071°12'0 0.0 320 / 91020.9 -6.7-18.3
2017-Mar-22 19:00N 46°48' W 071°12'0 0.0 320 / 121020.0 -6.8-19.0
2017-Mar-22 18:00N 46°48' W 071°12'0 0.0 310 / 121019.4 -7.2-18.0
2017-Mar-22 17:00N 46°48' W 071°12'0 0.0 320 / 101019.0 -7.5-18.2
2017-Mar-22 16:00N 46°48' W 071°12'0 0.0 330 / 131018.7 -8.3-18.3
2017-Mar-22 15:00N 46°48' W 071°12'0 0.0 350 / 121017.9 -9.3-17.3
2017-Mar-22 14:00N 46°48' W 071°12'0 0.0 340 / 111016.7 -10.2-16.0
2017-Mar-22 13:00N 46°48' W 071°12'0 0.0 340 / 111015.2 -10.2-14.6
2017-Mar-22 12:00N 46°48' W 071°12'0 0.0 330 / 91013.5 -10.5-12.6
2017-Mar-22 11:00N 46°48' W 071°12'0 0.0 320 / 71011.6 -9.9-11.8
2017-Mar-22 10:00N 46°48' W 071°12'0 0.0 330 / 71009.2 -8.6-10.1
2017-Mar-22 09:00N 46°48' W 071°12'0 0.0 360 / 171006.0 -6.2-10.0
2017-Mar-22 08:00N 46°48' W 071°12'0 0.0 360 / 121004.9 -3.2-8.7
2017-Mar-22 07:00N 46°48' W 071°12'0 0.0 290 / 41004.3 1.1 0.4
2017-Mar-22 06:00N 46°48' W 071°12'0 0.0 210 / 41004.9 1.6-0.2
2017-Mar-22 05:00N 46°48' W 071°12'0 0.0 220 / 41005.5 1.1-0.7
2017-Mar-22 04:00N 46°48' W 071°12'0 0.0 220 / 31005.7 1.7-0.9
2017-Mar-22 03:00N 46°48' W 071°12'0 0.0 230 / 61006.7 2.5-1.0
2017-Mar-22 02:00N 46°48' W 071°12'0 0.0 230 / 71007.0 3.3-1.4
2017-Mar-22 01:00N 46°48' W 071°12'0 0.0 240 / 61007.2 4.2-2.6
2017-Mar-22 00:00N 46°48' W 071°12'0 0.0 230 / 41007.0 4.3-4.2
2017-Mar-21 23:00N 46°48' W 071°12'0 0.0 070 / 11006.4 5.3-3.4
2017-Mar-21 22:00N 46°48' W 071°12'0 0.0 110 / 11006.4 5.2-5.7
2017-Mar-21 21:00N 46°48' W 071°12'0 0.0 040 / 11006.7 7.9-6.6
2017-Mar-21 20:00N 46°48' W 071°12'0 0.0 030 / 21007.2 7.3-4.2
2017-Mar-21 19:00N 46°48' W 071°12'0 0.0 040 / 21008.1 6.7-4.8
2017-Mar-21 18:00N 46°48' W 071°12'0 0.0 070 / 11009.0 7.4-4.0
2017-Mar-21 17:00N 46°48' W 071°12'0 0.0 030 / 21009.8 7.0-4.1
2017-Mar-21 16:00N 46°48' W 071°12'0 0.0 100 / 11010.5 5.9-1.6
2017-Mar-21 15:00N 46°48' W 071°12'0 0.0 090 / 11011.4 5.4-1.4
2017-Mar-21 14:00N 46°48' W 071°12'0 0.0 100 / 11011.9 4.3-1.2
2017-Mar-21 12:00N 46°48' W 071°12'0 0.0 240 / 51012.0 2.3-3.5
2017-Mar-21 11:00N 46°48' W 071°12'0 0.0 230 / 81011.9 1.7-3.8
2017-Mar-21 10:00N 46°48' W 071°12'0 0.0 240 / 71012.0 1.7-3.9
2017-Mar-21 09:00N 46°48' W 071°12'0 0.0 220 / 61011.9 2.0-4.5
2017-Mar-21 08:00N 46°48' W 071°12'0 0.0 220 / 71012.1 2.0-4.3
2017-Mar-21 07:00N 46°48' W 071°12'0 0.0 220 / 51012.4 2.6-4.9
2017-Mar-21 06:00N 46°48' W 071°12'0 0.0 220 / 71012.7 2.2-4.8
2017-Mar-21 05:00N 46°48' W 071°12'0 0.0 230 / 61013.1 2.8-5.4
2017-Mar-21 04:00N 46°48' W 071°12'0 0.0 250 / 41013.5 3.1-5.7
2017-Mar-21 03:00N 46°48' W 071°12'0 0.0 230 / 61014.0 3.3-6.2
2017-Mar-21 02:00N 46°48' W 071°12'0 0.0 230 / 71014.4 3.6-6.8
2017-Mar-21 01:00N 46°48' W 071°12'0 0.0 230 / 61014.7 4.1-6.9
2017-Mar-21 00:00N 46°48' W 071°12'0 0.0 230 / 51015.1 4.5-7.2
2017-Mar-20 23:00N 46°48' W 071°12'0 0.0 240 / 61015.4 4.8-6.5
2017-Mar-20 22:00N 46°48' W 071°12'0 0.0 230 / 31015.8 5.2-5.6
2017-Mar-20 21:00N 46°48' W 071°12'0 0.0 080 / 11016.5 2.8-2.0
2017-Mar-20 20:00N 46°48' W 071°12'0 0.0 040 / 21017.4 3.3-2.5
2017-Mar-20 19:00N 46°48' W 071°12'0 0.0 040 / 21018.2 3.2-2.4
2017-Mar-20 17:00N 46°48' W 071°12'0 0.0 030 / 21020.4 3.4-2.7
2017-Mar-20 16:00N 46°48' W 071°12'0 0.0 050 / 11021.5 2.9-3.4
2017-Mar-20 15:00N 46°48' W 071°12'0 0.0 040 / 11022.5 1.8-4.8
2017-Mar-20 14:00N 46°48' W 071°12'0 0.0 130 / 11022.9 0.3-6.5
2017-Mar-20 13:00N 46°48' W 071°12'0 0.0 120 / 11023.3 -1.3-7.2
2017-Mar-20 12:00N 46°48' W 071°12'0 0.0 320 / 11023.4 -2.1-6.9
2017-Mar-20 11:00N 46°48' W 071°12'0 0.0 230 / 31023.2 -4.5-6.9
2017-Mar-20 10:00N 46°48' W 071°12'0 0.0 290 / 11023.1 -3.9-5.7
2017-Mar-20 08:00N 46°48' W 071°12'0 0.0 1023.0 -3.2-5.6
2017-Mar-20 07:00N 46°48' W 071°12'0 0.0 270 / 11023.2 -3.3-4.5
2017-Mar-20 06:00N 46°48' W 071°12'0 0.0 330 / 11023.5 -2.3-5.4
2017-Mar-20 05:00N 46°48' W 071°12'0 0.0 1024.1 -1.9-5.4
2017-Mar-20 04:00N 46°48' W 071°12'0 0.0 330 / 11024.6 -1.1-4.3
2017-Mar-20 03:00N 46°48' W 071°12'0 0.0 360 / 11024.9 -0.3-3.2
2017-Mar-20 02:00N 46°48' W 071°12'0 0.0 110 / 11025.1 -0.5-3.7
2017-Mar-20 01:00N 46°48' W 071°12'0 0.0 070 / 11025.0 0.4-3.9
2017-Mar-20 00:00N 46°48' W 071°12'0 0.0 110 / 11024.7 1.3-6.6
2017-Mar-19 23:00N 46°48' W 071°12'0 0.0 040 / 11025.0 2.8-2.7
2017-Mar-19 22:00N 46°48' W 071°12'0 0.0 030 / 11025.0 5.0-5.1
2017-Mar-19 21:00N 46°48' W 071°12'0 0.0 050 / 21024.9 4.5-2.6
2017-Mar-19 20:00N 46°48' W 071°12'0 0.0 080 / 11025.4 4.8-2.0
2017-Mar-19 19:00N 46°48' W 071°12'0 0.0 020 / 11026.0 5.8-3.7
2017-Mar-19 18:00N 46°48' W 071°12'0 0.0 360 / 21026.9 3.8-3.1
2017-Mar-19 17:00N 46°48' W 071°12'0 0.0 1028.3 3.8-3.4
2017-Mar-19 16:00N 46°48' W 071°12'0 0.0 020 / 21029.2 2.8-4.1
2017-Mar-19 15:00N 46°48' W 071°12'0 0.0 010 / 11030.3 1.6-3.2
2017-Mar-19 14:00N 46°48' W 071°12'0 0.0 050 / 11030.6 -0.5-4.8
2017-Mar-19 13:00N 46°48' W 071°12'0 0.0 1030.7 -1.8-5.7
2017-Mar-19 12:00N 46°48' W 071°12'0 0.0 020 / 41030.4 -5.4-8.2
2017-Mar-19 11:00N 46°48' W 071°12'0 0.0 020 / 31029.8 -6.0-8.6
2017-Mar-19 10:00N 46°48' W 071°12'0 0.0 020 / 31029.0 -5.2-8.1
2017-Mar-19 09:00N 46°48' W 071°12'0 0.0 020 / 31028.6 -4.8-7.8
2017-Mar-19 08:00N 46°48' W 071°12'0 0.0 020 / 41028.5 -4.8-7.8
2017-Mar-19 07:00N 46°48' W 071°12'0 0.0 1028.8 -2.8-5.2
2017-Mar-19 06:00N 46°48' W 071°12'0 0.0 040 / 11029.0 -2.3-4.4
2017-Mar-19 05:00N 46°48' W 071°12'0 0.0 1028.8 -2.4-4.4
2017-Mar-19 04:00N 46°48' W 071°12'0 0.0 350 / 11029.0 -1.9-4.0
2017-Mar-19 03:00N 46°48' W 071°12'0 0.0 030 / 11028.9 -2.3-4.6
2017-Mar-19 02:00N 46°48' W 071°12'0 0.0 010 / 11028.7 -1.8-4.3
2017-Mar-19 01:00N 46°48' W 071°12'0 0.0 1028.4 -1.3-4.6
2017-Mar-19 00:00N 46°48' W 071°12'0 0.0 110 / 11027.8 -0.6-5.9
2017-Mar-18 23:00N 46°48' W 071°12'0 0.0 020 / 11027.2 0.1-5.0
2017-Mar-18 22:00N 46°48' W 071°12'0 0.0 1026.9 1.7-5.0
2017-Mar-18 21:00N 46°48' W 071°12'0 0.0 030 / 11027.1 2.7-5.4
2017-Mar-18 20:00N 46°48' W 071°12'0 0.0 030 / 11027.4 3.4-4.7
2017-Mar-18 19:00N 46°48' W 071°12'0 0.0 020 / 11027.9 3.6-7.0
2017-Mar-18 18:00N 46°48' W 071°12'0 0.0 330 / 31028.3 1.0-7.3
2017-Mar-18 17:00N 46°48' W 071°12'0 0.0 330 / 31029.0 -0.4-6.5
2017-Mar-18 16:00N 46°48' W 071°12'0 0.0 330 / 21029.1 -1.5-6.5
2017-Mar-18 15:00N 46°48' W 071°12'0 0.0 320 / 21029.4 -3.7-8.0
2017-Mar-18 14:00N 46°48' W 071°12'0 0.0 010 / 21029.2 -4.7-9.5
2017-Mar-18 13:00N 46°48' W 071°12'0 0.0 1029.1 -5.7-10.5
2017-Mar-18 12:00N 46°48' W 071°12'0 0.0 240 / 21028.6 -7.9-10.7
2017-Mar-18 10:00N 46°48' W 071°12'0 0.0 220 / 41027.4 -8.4-11.2
2017-Mar-18 09:00N 46°48' W 071°12'0 0.0 220 / 31026.9 -7.7-10.8
2017-Mar-18 08:00N 46°48' W 071°12'0 0.0 220 / 21026.4 -6.8-10.3
2017-Mar-18 07:00N 46°48' W 071°12'0 0.0 230 / 51026.0 -5.6-9.6
2017-Mar-18 06:00N 46°48' W 071°12'0 0.0 230 / 61025.8 -5.0-9.6
2017-Mar-18 05:00N 46°48' W 071°12'0 0.0 250 / 51025.3 -4.5-9.5
2017-Mar-18 04:00N 46°48' W 071°12'0 0.0 220 / 61024.8 -3.9-9.8
2017-Mar-18 03:00N 46°48' W 071°12'0 0.0 240 / 21024.4 -2.2-10.1
2017-Mar-18 02:00N 46°48' W 071°12'0 0.0 270 / 21023.9 -1.7-10.0
2017-Mar-18 01:00N 46°48' W 071°12'0 0.0 010 / 21023.5 -0.8-7.3
2017-Mar-18 00:00N 46°48' W 071°12'0 0.0 020 / 41022.6 -1.4-6.8
2017-Mar-17 23:00N 46°48' W 071°12'0 0.0 020 / 21021.5 -0.3-6.1
2017-Mar-17 22:00N 46°48' W 071°12'0 0.0 340 / 31020.4 0.1-8.2
2017-Mar-17 21:00N 46°48' W 071°12'0 0.0 220 / 71019.9 -0.8-9.1
2017-Mar-17 20:00N 46°48' W 071°12'0 0.0 210 / 81019.6 -1.0-9.3
2017-Mar-17 19:00N 46°48' W 071°12'0 0.0 200 / 91019.5 -2.0-9.8
2017-Mar-17 18:00N 46°48' W 071°12'0 0.0 230 / 91019.7 -2.2-9.5
2017-Mar-17 17:00N 46°48' W 071°12'0 0.0 210 / 101020.1 -3.8-10.1
2017-Mar-17 16:00N 46°48' W 071°12'0 0.0 200 / 121020.1 -5.0-11.2
2017-Mar-17 15:00N 46°48' W 071°12'0 0.0 220 / 91020.0 -5.6-12.3
2017-Mar-17 14:00N 46°48' W 071°12'0 0.0 240 / 81019.7 -6.5-13.0
2017-Mar-17 13:00N 46°48' W 071°12'0 0.0 240 / 71018.8 -7.8-13.3
2017-Mar-17 12:00N 46°48' W 071°12'0 0.0 240 / 71018.2 -8.9-13.8
2017-Mar-17 11:00N 46°48' W 071°12'0 0.0 240 / 51017.6 -9.1-13.7
2017-Mar-17 10:00N 46°48' W 071°12'0 0.0 260 / 41017.0 -9.4-13.4
2017-Mar-17 09:00N 46°48' W 071°12'0 0.0 250 / 51016.4 -9.2-13.5
2017-Mar-17 08:00N 46°48' W 071°12'0 0.0 250 / 61015.6 -9.1-13.3
2017-Mar-17 07:00N 46°48' W 071°12'0 0.0 240 / 51015.2 -8.9-13.4
2017-Mar-17 06:00N 46°48' W 071°12'0 0.0 250 / 51014.9 -8.4-12.9
2017-Mar-17 05:00N 46°48' W 071°12'0 0.0 280 / 51014.4 -7.7-13.4
2017-Mar-17 04:00N 46°48' W 071°12'0 0.0 280 / 61014.2 -7.1-12.9
2017-Mar-17 03:00N 46°48' W 071°12'0 0.0 320 / 71014.0 -6.4-13.2
2017-Mar-17 02:00N 46°48' W 071°12'0 0.0 330 / 81013.9 -5.8-12.8
2017-Mar-17 01:00N 46°48' W 071°12'0 0.0 270 / 41013.2 -5.4-10.8
2017-Mar-17 00:00N 46°48' W 071°12'0 0.0 280 / 61012.3 -5.3-11.9
2017-Mar-16 23:00N 46°48' W 071°12'0 0.0 290 / 81011.1 -5.3-12.6
2017-Mar-16 22:00N 46°48' W 071°12'0 0.0 280 / 101009.7 -5.3-12.8
2017-Mar-16 21:00N 46°48' W 071°12'0 0.0 280 / 121008.8 -5.2-13.1
2017-Mar-16 20:00N 46°48' W 071°12'0 0.0 270 / 91007.8 -5.0-12.1
2017-Mar-16 19:00N 46°48' W 071°12'0 0.0 250 / 111007.0 -5.5-10.9
2017-Mar-16 18:00N 46°48' W 071°12'0 0.0 240 / 121006.1 -6.3-11.5
2017-Mar-16 17:00N 46°48' W 071°12'0 0.0 250 / 111005.5 -6.2-11.8
2017-Mar-16 16:00N 46°48' W 071°12'0 0.0 250 / 101004.8 -6.5-13.2
2017-Mar-16 15:00N 46°48' W 071°12'0 0.0 290 / 91004.3 -6.5-13.4
2017-Mar-16 14:00N 46°48' W 071°12'0 0.0 270 / 91003.4 -6.8-13.2
2017-Mar-16 13:00N 46°48' W 071°12'0 0.0 270 / 111002.9 -7.1-12.8
2017-Mar-16 12:00N 46°48' W 071°12'0 0.0 250 / 101002.3 -8.0-12.5
2017-Mar-16 11:00N 46°48' W 071°12'0 0.0 250 / 101000.7 -8.2-12.4
2017-Mar-16 10:00N 46°48' W 071°12'0 0.0 250 / 10999.4 -7.4-11.8
2017-Mar-16 09:00N 46°48' W 071°12'0 0.0 250 / 9998.5 -6.4-11.6
2017-Mar-16 08:00N 46°48' W 071°12'0 0.0 290 / 10997.5 -5.3-11.4
2017-Mar-16 07:00N 46°48' W 071°12'0 0.0 290 / 9996.8 -5.1-9.6
2017-Mar-16 06:00N 46°48' W 071°12'0 0.0 270 / 6996.1 -4.5-8.1
2017-Mar-16 05:00N 46°48' W 071°12'0 0.0 280 / 3995.4 -3.8-8.2
2017-Mar-16 04:00N 46°48' W 071°12'0 0.0 330 / 4995.1 -3.9-7.4
2017-Mar-16 03:00N 46°48' W 071°12'0 0.0 330 / 6994.5 -3.7-6.7
2017-Mar-16 02:00N 46°48' W 071°12'0 0.0 320 / 5993.8 -2.8-7.1
2017-Mar-16 01:00N 46°48' W 071°12'0 0.0 300 / 7993.1 -2.6-6.8
2017-Mar-16 00:00N 46°48' W 071°12'0 0.0 300 / 7992.8 -2.3-5.8
2017-Mar-15 23:00N 46°48' W 071°12'0 0.0 320 / 6992.1 -1.4-4.1
2017-Mar-15 21:00N 46°48' W 071°12'0 0.0 030 / 1990.7 -1.4-1.7
2017-Mar-15 20:00N 46°48' W 071°12'0 0.0 170 / 4990.6 -1.6-2.3
2017-Mar-15 19:00N 46°48' W 071°12'0 0.0 240 / 2990.2 -1.6-2.4
2017-Mar-15 18:00N 46°48' W 071°12'0 0.0 010 / 3989.8 -1.5-2.1
2017-Mar-15 17:00N 46°48' W 071°12'0 0.0 020 / 7989.6 -1.9-3.1
2017-Mar-15 16:00N 46°48' W 071°12'0 0.0 040 / 8989.3 -1.5-4.3
2017-Mar-15 15:00N 46°48' W 071°12'0 0.0 040 / 9989.2 -1.9-4.6
2017-Mar-15 14:00N 46°48' W 071°12'0 0.0 040 / 9989.0 -2.1-5.4
2017-Mar-15 13:00N 46°48' W 071°12'0 0.0 040 / 9988.8 -2.8-5.0
2017-Mar-15 12:00N 46°48' W 071°12'0 0.0 040 / 10988.7 -3.1-4.8
2017-Mar-15 11:00N 46°48' W 071°12'0 0.0 040 / 7988.5 -3.0-4.9
2017-Mar-15 10:00N 46°48' W 071°12'0 0.0 040 / 10988.7 -3.0-5.3
2017-Mar-15 09:00N 46°48' W 071°12'0 0.0 040 / 10989.4 -3.2-5.0
2017-Mar-15 08:00N 46°48' W 071°12'0 0.0 040 / 12989.8 -3.2-4.4
2017-Mar-15 07:00N 46°48' W 071°12'0 0.0 040 / 15991.0 -4.2-5.1
2017-Mar-15 06:00N 46°48' W 071°12'0 0.0 040 / 16992.9 -4.2-4.8
2017-Mar-15 05:00N 46°48' W 071°12'0 0.0 040 / 10995.4 -4.4-4.9
2017-Mar-15 03:00N 46°48' W 071°12'0 0.0 040 / 13998.8 -5.2-5.8
2017-Mar-15 02:00N 46°48' W 071°12'0 0.0 040 / 161001.4 -5.7-6.6
2017-Mar-15 01:00N 46°48' W 071°12'0 0.0 040 / 141005.4 -6.0-7.0
2017-Mar-15 00:00N 46°48' W 071°12'0 0.0 040 / 111009.3 -5.9-6.7
2017-Mar-14 23:00N 46°48' W 071°12'0 0.0 040 / 131011.5 -6.9-8.0
2017-Mar-14 22:00N 46°48' W 071°12'0 0.0 040 / 121015.6 -6.8-7.8
2017-Mar-14 21:00N 46°48' W 071°12'0 0.0 040 / 61017.6 -6.4-7.9
2017-Mar-14 20:00N 46°48' W 071°12'0 0.0 040 / 81018.9 -6.4-8.5
2017-Mar-14 19:00N 46°48' W 071°12'0 0.0 040 / 61021.7 -6.2-9.2
2017-Mar-14 18:00N 46°48' W 071°12'0 0.0 040 / 61024.0 -5.8-10.5
2017-Mar-14 17:00N 46°48' W 071°12'0 0.0 040 / 61026.2 -5.8-10.5
2017-Mar-14 16:00N 46°48' W 071°12'0 0.0 030 / 51027.0 -6.1-10.4
2017-Mar-14 15:00N 46°48' W 071°12'0 0.0 030 / 41027.8 -6.6-11.5
2017-Mar-14 14:00N 46°48' W 071°12'0 0.0 030 / 31028.1 -7.2-12.7
2017-Mar-14 13:00N 46°48' W 071°12'0 0.0 110 / 21029.2 -8.8-15.1
2017-Mar-14 12:00N 46°48' W 071°12'0 0.0 120 / 21029.9 -10.1-16.1
2017-Mar-14 11:00N 46°48' W 071°12'0 0.0 120 / 21029.0 -9.4-14.6
2017-Mar-14 10:00N 46°48' W 071°12'0 0.0 350 / 31030.3 -9.2-14.9
2017-Mar-14 09:00N 46°48' W 071°12'0 0.0 190 / 41029.7 -9.5-15.4
2017-Mar-14 08:00N 46°48' W 071°12'0 0.0 220 / 41029.3 -9.4-15.9
2017-Mar-14 07:00N 46°48' W 071°12'0 0.0 240 / 61029.2 -9.7-16.5
2017-Mar-14 06:00N 46°48' W 071°12'0 0.0 240 / 61029.7 -9.5-16.4
2017-Mar-14 05:00N 46°48' W 071°12'0 0.0 240 / 71030.4 -9.2-16.5
2017-Mar-14 04:00N 46°48' W 071°12'0 0.0 240 / 71030.8 -9.3-16.5
2017-Mar-14 03:00N 46°48' W 071°12'0 0.0 250 / 81030.8 -9.2-16.6
2017-Mar-14 02:00N 46°48' W 071°12'0 0.0 250 / 71031.0 -9.0-16.9
2017-Mar-14 01:00N 46°48' W 071°12'0 0.0 240 / 71030.6 -8.9-17.4
2017-Mar-14 00:00N 46°48' W 071°12'0 0.0 250 / 71030.1 -8.7-16.9
2017-Mar-13 23:00N 46°48' W 071°12'   230 / 71030.4 -8.5-17.9
Track history (hours):
 
Tides and Currents Weather Stations Pressure Air Temp Water Temp Dewpoint Dewpoint Depression Visibility Wind Speed Wind Dir Waves Ship Positions

Oceanographic research ship CCGS Louis S. St-Laurent (Canada)

Detailed information on ship capabilities available from ARCUS's ALIAS (Arctic Logistics Information and Support) project.

Last reported at 2017-Mar-23 23:00 UTC. Time now 2017-Mar-24 00:00 UTC.
Position N 46°48' W 071°12'.

Length 119.63 m; beam 24.38 m; draft 9.9 m.

MMSI: 316165000.

Wind from 270 at 8 knots

Barometer 1029.9 mb
Air temperature -2.1 ° C
Dewpoint -15.7 ° C

Date/timePositionNaut miles runAvg speedWind from/ knotsBaromVisibWave heightAir tempDewpointWater temp
2017-Mar-23 23:00N 46°48' W 071°12'0 0.0 270 / 81029.9 -2.1-15.7
2017-Mar-23 22:00N 46°48' W 071°12'0 0.0 260 / 71029.7 -1.5-16.6
2017-Mar-23 21:00N 46°48' W 071°12'0 0.0 270 / 81029.7 -1.9-17.0
2017-Mar-23 20:00N 46°48' W 071°12'0 0.0 300 / 101029.6 -2.7-17.6
2017-Mar-23 19:00N 46°48' W 071°12'0 0.0 280 / 101029.5 -3.3-18.9
2017-Mar-23 18:00N 46°48' W 071°12'0 0.0 250 / 91029.7 -4.4-18.5
2017-Mar-23 17:00N 46°48' W 071°12'0 0.0 250 / 91030.2 -5.4-17.3
2017-Mar-23 16:00N 46°48' W 071°12'0 0.0 220 / 111030.5 -6.7-18.0
2017-Mar-23 15:00N 46°48' W 071°12'0 0.0 220 / 91031.1 -8.9-17.7
2017-Mar-23 14:00N 46°48' W 071°12'0 0.0 240 / 91031.4 -10.3-18.5
2017-Mar-23 13:00N 46°48' W 071°12'0 0.0 240 / 91031.1 -11.0-18.7
2017-Mar-23 12:00N 46°48' W 071°12'0 0.0 260 / 71030.4 -11.8-18.2
2017-Mar-23 11:00N 46°48' W 071°12'0 0.0 240 / 81029.9 -12.1-18.7
2017-Mar-23 10:00N 46°48' W 071°12'0 0.0 280 / 81029.1 -11.4-19.0
2017-Mar-23 09:00N 46°48' W 071°12'0 0.0 280 / 81028.3 -11.1-18.9
2017-Mar-23 08:00N 46°48' W 071°12'0 0.0 270 / 61027.9 -10.8-19.2
2017-Mar-23 07:00N 46°48' W 071°12'0 0.0 300 / 71027.7 -10.4-19.3
2017-Mar-23 06:00N 46°48' W 071°12'0 0.0 320 / 101027.3 -10.0-18.5
2017-Mar-23 05:00N 46°48' W 071°12'0 0.0 300 / 121027.1 -9.9-19.5
2017-Mar-23 04:00N 46°48' W 071°12'0 0.0 290 / 91027.2 -9.8-19.8
2017-Mar-23 03:00N 46°48' W 071°12'0 0.0 300 / 81026.9 -9.4-19.3
2017-Mar-23 02:00N 46°48' W 071°12'0 0.0 280 / 71026.9 -9.2-19.9
2017-Mar-23 01:00N 46°48' W 071°12'0 0.0 300 / 61026.3 -8.9-19.1
2017-Mar-23 00:00N 46°48' W 071°12'0 0.0 320 / 61025.3 -8.5-19.0
2017-Mar-22 23:00N 46°48' W 071°12'0 0.0 330 / 91023.9 -7.9-19.3
2017-Mar-22 22:00N 46°48' W 071°12'0 0.0 330 / 101022.9 -6.9-18.2
2017-Mar-22 21:00N 46°48' W 071°12'0 0.0 330 / 121021.7 -6.8-18.9
2017-Mar-22 20:00N 46°48' W 071°12'0 0.0 320 / 91020.9 -6.7-18.3
2017-Mar-22 19:00N 46°48' W 071°12'0 0.0 320 / 121020.0 -6.8-19.0
2017-Mar-22 18:00N 46°48' W 071°12'0 0.0 310 / 121019.4 -7.2-18.0
2017-Mar-22 17:00N 46°48' W 071°12'0 0.0 320 / 101019.0 -7.5-18.2
2017-Mar-22 16:00N 46°48' W 071°12'0 0.0 330 / 131018.7 -8.3-18.3
2017-Mar-22 15:00N 46°48' W 071°12'0 0.0 350 / 121017.9 -9.3-17.3
2017-Mar-22 14:00N 46°48' W 071°12'0 0.0 340 / 111016.7 -10.2-16.0
2017-Mar-22 13:00N 46°48' W 071°12'0 0.0 340 / 111015.2 -10.2-14.6
2017-Mar-22 12:00N 46°48' W 071°12'0 0.0 330 / 91013.5 -10.5-12.6
2017-Mar-22 11:00N 46°48' W 071°12'0 0.0 320 / 71011.6 -9.9-11.8
2017-Mar-22 10:00N 46°48' W 071°12'0 0.0 330 / 71009.2 -8.6-10.1
2017-Mar-22 09:00N 46°48' W 071°12'0 0.0 360 / 171006.0 -6.2-10.0
2017-Mar-22 08:00N 46°48' W 071°12'0 0.0 360 / 121004.9 -3.2-8.7
2017-Mar-22 07:00N 46°48' W 071°12'0 0.0 290 / 41004.3 1.1 0.4
2017-Mar-22 06:00N 46°48' W 071°12'0 0.0 210 / 41004.9 1.6-0.2
2017-Mar-22 05:00N 46°48' W 071°12'0 0.0 220 / 41005.5 1.1-0.7
2017-Mar-22 04:00N 46°48' W 071°12'0 0.0 220 / 31005.7 1.7-0.9
2017-Mar-22 03:00N 46°48' W 071°12'0 0.0 230 / 61006.7 2.5-1.0
2017-Mar-22 02:00N 46°48' W 071°12'0 0.0 230 / 71007.0 3.3-1.4
2017-Mar-22 01:00N 46°48' W 071°12'0 0.0 240 / 61007.2 4.2-2.6
2017-Mar-22 00:00N 46°48' W 071°12'0 0.0 230 / 41007.0 4.3-4.2
2017-Mar-21 23:00N 46°48' W 071°12'0 0.0 070 / 11006.4 5.3-3.4
2017-Mar-21 22:00N 46°48' W 071°12'0 0.0 110 / 11006.4 5.2-5.7
2017-Mar-21 21:00N 46°48' W 071°12'0 0.0 040 / 11006.7 7.9-6.6
2017-Mar-21 20:00N 46°48' W 071°12'0 0.0 030 / 21007.2 7.3-4.2
2017-Mar-21 19:00N 46°48' W 071°12'0 0.0 040 / 21008.1 6.7-4.8
2017-Mar-21 18:00N 46°48' W 071°12'0 0.0 070 / 11009.0 7.4-4.0
2017-Mar-21 17:00N 46°48' W 071°12'0 0.0 030 / 21009.8 7.0-4.1
2017-Mar-21 16:00N 46°48' W 071°12'0 0.0 100 / 11010.5 5.9-1.6
2017-Mar-21 15:00N 46°48' W 071°12'0 0.0 090 / 11011.4 5.4-1.4
2017-Mar-21 14:00N 46°48' W 071°12'0 0.0 100 / 11011.9 4.3-1.2
2017-Mar-21 12:00N 46°48' W 071°12'0 0.0 240 / 51012.0 2.3-3.5
2017-Mar-21 11:00N 46°48' W 071°12'0 0.0 230 / 81011.9 1.7-3.8
2017-Mar-21 10:00N 46°48' W 071°12'0 0.0 240 / 71012.0 1.7-3.9
2017-Mar-21 09:00N 46°48' W 071°12'0 0.0 220 / 61011.9 2.0-4.5
2017-Mar-21 08:00N 46°48' W 071°12'0 0.0 220 / 71012.1 2.0-4.3
2017-Mar-21 07:00N 46°48' W 071°12'0 0.0 220 / 51012.4 2.6-4.9
2017-Mar-21 06:00N 46°48' W 071°12'0 0.0 220 / 71012.7 2.2-4.8
2017-Mar-21 05:00N 46°48' W 071°12'0 0.0 230 / 61013.1 2.8-5.4
2017-Mar-21 04:00N 46°48' W 071°12'0 0.0 250 / 41013.5 3.1-5.7
2017-Mar-21 03:00N 46°48' W 071°12'0 0.0 230 / 61014.0 3.3-6.2
2017-Mar-21 02:00N 46°48' W 071°12'0 0.0 230 / 71014.4 3.6-6.8
2017-Mar-21 01:00N 46°48' W 071°12'0 0.0 230 / 61014.7 4.1-6.9
2017-Mar-21 00:00N 46°48' W 071°12'0 0.0 230 / 51015.1 4.5-7.2
2017-Mar-20 23:00N 46°48' W 071°12'0 0.0 240 / 61015.4 4.8-6.5
2017-Mar-20 22:00N 46°48' W 071°12'0 0.0 230 / 31015.8 5.2-5.6
2017-Mar-20 21:00N 46°48' W 071°12'0 0.0 080 / 11016.5 2.8-2.0
2017-Mar-20 20:00N 46°48' W 071°12'0 0.0 040 / 21017.4 3.3-2.5
2017-Mar-20 19:00N 46°48' W 071°12'0 0.0 040 / 21018.2 3.2-2.4
2017-Mar-20 17:00N 46°48' W 071°12'0 0.0 030 / 21020.4 3.4-2.7
2017-Mar-20 16:00N 46°48' W 071°12'0 0.0 050 / 11021.5 2.9-3.4
2017-Mar-20 15:00N 46°48' W 071°12'0 0.0 040 / 11022.5 1.8-4.8
2017-Mar-20 14:00N 46°48' W 071°12'0 0.0 130 / 11022.9 0.3-6.5
2017-Mar-20 13:00N 46°48' W 071°12'0 0.0 120 / 11023.3 -1.3-7.2
2017-Mar-20 12:00N 46°48' W 071°12'0 0.0 320 / 11023.4 -2.1-6.9
2017-Mar-20 11:00N 46°48' W 071°12'0 0.0 230 / 31023.2 -4.5-6.9
2017-Mar-20 10:00N 46°48' W 071°12'0 0.0 290 / 11023.1 -3.9-5.7
2017-Mar-20 08:00N 46°48' W 071°12'0 0.0 1023.0 -3.2-5.6
2017-Mar-20 07:00N 46°48' W 071°12'0 0.0 270 / 11023.2 -3.3-4.5
2017-Mar-20 06:00N 46°48' W 071°12'0 0.0 330 / 11023.5 -2.3-5.4
2017-Mar-20 05:00N 46°48' W 071°12'0 0.0 1024.1 -1.9-5.4
2017-Mar-20 04:00N 46°48' W 071°12'0 0.0 330 / 11024.6 -1.1-4.3
2017-Mar-20 03:00N 46°48' W 071°12'0 0.0 360 / 11024.9 -0.3-3.2
2017-Mar-20 02:00N 46°48' W 071°12'0 0.0 110 / 11025.1 -0.5-3.7
2017-Mar-20 01:00N 46°48' W 071°12'0 0.0 070 / 11025.0 0.4-3.9
2017-Mar-20 00:00N 46°48' W 071°12'0 0.0 110 / 11024.7 1.3-6.6
2017-Mar-19 23:00N 46°48' W 071°12'0 0.0 040 / 11025.0 2.8-2.7
2017-Mar-19 22:00N 46°48' W 071°12'0 0.0 030 / 11025.0 5.0-5.1
2017-Mar-19 21:00N 46°48' W 071°12'0 0.0 050 / 21024.9 4.5-2.6
2017-Mar-19 20:00N 46°48' W 071°12'0 0.0 080 / 11025.4 4.8-2.0
2017-Mar-19 19:00N 46°48' W 071°12'0 0.0 020 / 11026.0 5.8-3.7
2017-Mar-19 18:00N 46°48' W 071°12'0 0.0 360 / 21026.9 3.8-3.1
2017-Mar-19 17:00N 46°48' W 071°12'0 0.0 1028.3 3.8-3.4
2017-Mar-19 16:00N 46°48' W 071°12'0 0.0 020 / 21029.2 2.8-4.1
2017-Mar-19 15:00N 46°48' W 071°12'0 0.0 010 / 11030.3 1.6-3.2
2017-Mar-19 14:00N 46°48' W 071°12'0 0.0 050 / 11030.6 -0.5-4.8
2017-Mar-19 13:00N 46°48' W 071°12'0 0.0 1030.7 -1.8-5.7
2017-Mar-19 12:00N 46°48' W 071°12'0 0.0 020 / 41030.4 -5.4-8.2
2017-Mar-19 11:00N 46°48' W 071°12'0 0.0 020 / 31029.8 -6.0-8.6
2017-Mar-19 10:00N 46°48' W 071°12'0 0.0 020 / 31029.0 -5.2-8.1
2017-Mar-19 09:00N 46°48' W 071°12'0 0.0 020 / 31028.6 -4.8-7.8
2017-Mar-19 08:00N 46°48' W 071°12'0 0.0 020 / 41028.5 -4.8-7.8
2017-Mar-19 07:00N 46°48' W 071°12'0 0.0 1028.8 -2.8-5.2
2017-Mar-19 06:00N 46°48' W 071°12'0 0.0 040 / 11029.0 -2.3-4.4
2017-Mar-19 05:00N 46°48' W 071°12'0 0.0 1028.8 -2.4-4.4
2017-Mar-19 04:00N 46°48' W 071°12'0 0.0 350 / 11029.0 -1.9-4.0
2017-Mar-19 03:00N 46°48' W 071°12'0 0.0 030 / 11028.9 -2.3-4.6
2017-Mar-19 02:00N 46°48' W 071°12'0 0.0 010 / 11028.7 -1.8-4.3
2017-Mar-19 01:00N 46°48' W 071°12'0 0.0 1028.4 -1.3-4.6
2017-Mar-19 00:00N 46°48' W 071°12'0 0.0 110 / 11027.8 -0.6-5.9
2017-Mar-18 23:00N 46°48' W 071°12'0 0.0 020 / 11027.2 0.1-5.0
2017-Mar-18 22:00N 46°48' W 071°12'0 0.0 1026.9 1.7-5.0
2017-Mar-18 21:00N 46°48' W 071°12'0 0.0 030 / 11027.1 2.7-5.4
2017-Mar-18 20:00N 46°48' W 071°12'0 0.0 030 / 11027.4 3.4-4.7
2017-Mar-18 19:00N 46°48' W 071°12'0 0.0 020 / 11027.9 3.6-7.0
2017-Mar-18 18:00N 46°48' W 071°12'0 0.0 330 / 31028.3 1.0-7.3
2017-Mar-18 17:00N 46°48' W 071°12'0 0.0 330 / 31029.0 -0.4-6.5
2017-Mar-18 16:00N 46°48' W 071°12'0 0.0 330 / 21029.1 -1.5-6.5
2017-Mar-18 15:00N 46°48' W 071°12'0 0.0 320 / 21029.4 -3.7-8.0
2017-Mar-18 14:00N 46°48' W 071°12'0 0.0 010 / 21029.2 -4.7-9.5
2017-Mar-18 13:00N 46°48' W 071°12'0 0.0 1029.1 -5.7-10.5
2017-Mar-18 12:00N 46°48' W 071°12'0 0.0 240 / 21028.6 -7.9-10.7
2017-Mar-18 10:00N 46°48' W 071°12'0 0.0 220 / 41027.4 -8.4-11.2
2017-Mar-18 09:00N 46°48' W 071°12'0 0.0 220 / 31026.9 -7.7-10.8
2017-Mar-18 08:00N 46°48' W 071°12'0 0.0 220 / 21026.4 -6.8-10.3
2017-Mar-18 07:00N 46°48' W 071°12'0 0.0 230 / 51026.0 -5.6-9.6
2017-Mar-18 06:00N 46°48' W 071°12'0 0.0 230 / 61025.8 -5.0-9.6
2017-Mar-18 05:00N 46°48' W 071°12'0 0.0 250 / 51025.3 -4.5-9.5
2017-Mar-18 04:00N 46°48' W 071°12'0 0.0 220 / 61024.8 -3.9-9.8
2017-Mar-18 03:00N 46°48' W 071°12'0 0.0 240 / 21024.4 -2.2-10.1
2017-Mar-18 02:00N 46°48' W 071°12'0 0.0 270 / 21023.9 -1.7-10.0
2017-Mar-18 01:00N 46°48' W 071°12'0 0.0 010 / 21023.5 -0.8-7.3
2017-Mar-18 00:00N 46°48' W 071°12'0 0.0 020 / 41022.6 -1.4-6.8
2017-Mar-17 23:00N 46°48' W 071°12'0 0.0 020 / 21021.5 -0.3-6.1
2017-Mar-17 22:00N 46°48' W 071°12'0 0.0 340 / 31020.4 0.1-8.2
2017-Mar-17 21:00N 46°48' W 071°12'0 0.0 220 / 71019.9 -0.8-9.1
2017-Mar-17 20:00N 46°48' W 071°12'0 0.0 210 / 81019.6 -1.0-9.3
2017-Mar-17 19:00N 46°48' W 071°12'0 0.0 200 / 91019.5 -2.0-9.8
2017-Mar-17 18:00N 46°48' W 071°12'0 0.0 230 / 91019.7 -2.2-9.5
2017-Mar-17 17:00N 46°48' W 071°12'0 0.0 210 / 101020.1 -3.8-10.1
2017-Mar-17 16:00N 46°48' W 071°12'0 0.0 200 / 121020.1 -5.0-11.2
2017-Mar-17 15:00N 46°48' W 071°12'0 0.0 220 / 91020.0 -5.6-12.3
2017-Mar-17 14:00N 46°48' W 071°12'0 0.0 240 / 81019.7 -6.5-13.0
2017-Mar-17 13:00N 46°48' W 071°12'0 0.0 240 / 71018.8 -7.8-13.3
2017-Mar-17 12:00N 46°48' W 071°12'0 0.0 240 / 71018.2 -8.9-13.8
2017-Mar-17 11:00N 46°48' W 071°12'0 0.0 240 / 51017.6 -9.1-13.7
2017-Mar-17 10:00N 46°48' W 071°12'0 0.0 260 / 41017.0 -9.4-13.4
2017-Mar-17 09:00N 46°48' W 071°12'0 0.0 250 / 51016.4 -9.2-13.5
2017-Mar-17 08:00N 46°48' W 071°12'0 0.0 250 / 61015.6 -9.1-13.3
2017-Mar-17 07:00N 46°48' W 071°12'0 0.0 240 / 51015.2 -8.9-13.4
2017-Mar-17 06:00N 46°48' W 071°12'0 0.0 250 / 51014.9 -8.4-12.9
2017-Mar-17 05:00N 46°48' W 071°12'0 0.0 280 / 51014.4 -7.7-13.4
2017-Mar-17 04:00N 46°48' W 071°12'0 0.0 280 / 61014.2 -7.1-12.9
2017-Mar-17 03:00N 46°48' W 071°12'0 0.0 320 / 71014.0 -6.4-13.2
2017-Mar-17 02:00N 46°48' W 071°12'0 0.0 330 / 81013.9 -5.8-12.8
2017-Mar-17 01:00N 46°48' W 071°12'0 0.0 270 / 41013.2 -5.4-10.8
2017-Mar-17 00:00N 46°48' W 071°12'0 0.0 280 / 61012.3 -5.3-11.9
2017-Mar-16 23:00N 46°48' W 071°12'0 0.0 290 / 81011.1 -5.3-12.6
2017-Mar-16 22:00N 46°48' W 071°12'0 0.0 280 / 101009.7 -5.3-12.8
2017-Mar-16 21:00N 46°48' W 071°12'0 0.0 280 / 121008.8 -5.2-13.1
2017-Mar-16 20:00N 46°48' W 071°12'0 0.0 270 / 91007.8 -5.0-12.1
2017-Mar-16 19:00N 46°48' W 071°12'0 0.0 250 / 111007.0 -5.5-10.9
2017-Mar-16 18:00N 46°48' W 071°12'0 0.0 240 / 121006.1 -6.3-11.5
2017-Mar-16 17:00N 46°48' W 071°12'0 0.0 250 / 111005.5 -6.2-11.8
2017-Mar-16 16:00N 46°48' W 071°12'0 0.0 250 / 101004.8 -6.5-13.2
2017-Mar-16 15:00N 46°48' W 071°12'0 0.0 290 / 91004.3 -6.5-13.4
2017-Mar-16 14:00N 46°48' W 071°12'0 0.0 270 / 91003.4 -6.8-13.2
2017-Mar-16 13:00N 46°48' W 071°12'0 0.0 270 / 111002.9 -7.1-12.8
2017-Mar-16 12:00N 46°48' W 071°12'0 0.0 250 / 101002.3 -8.0-12.5
2017-Mar-16 11:00N 46°48' W 071°12'0 0.0 250 / 101000.7 -8.2-12.4
2017-Mar-16 10:00N 46°48' W 071°12'0 0.0 250 / 10999.4 -7.4-11.8
2017-Mar-16 09:00N 46°48' W 071°12'0 0.0 250 / 9998.5 -6.4-11.6
2017-Mar-16 08:00N 46°48' W 071°12'0 0.0 290 / 10997.5 -5.3-11.4
2017-Mar-16 07:00N 46°48' W 071°12'0 0.0 290 / 9996.8 -5.1-9.6
2017-Mar-16 06:00N 46°48' W 071°12'0 0.0 270 / 6996.1 -4.5-8.1
2017-Mar-16 05:00N 46°48' W 071°12'0 0.0 280 / 3995.4 -3.8-8.2
2017-Mar-16 04:00N 46°48' W 071°12'0 0.0 330 / 4995.1 -3.9-7.4
2017-Mar-16 03:00N 46°48' W 071°12'0 0.0 330 / 6994.5 -3.7-6.7
2017-Mar-16 02:00N 46°48' W 071°12'0 0.0 320 / 5993.8 -2.8-7.1
2017-Mar-16 01:00N 46°48' W 071°12'0 0.0 300 / 7993.1 -2.6-6.8
2017-Mar-16 00:00N 46°48' W 071°12'0 0.0 300 / 7992.8 -2.3-5.8
2017-Mar-15 23:00N 46°48' W 071°12'0 0.0 320 / 6992.1 -1.4-4.1
2017-Mar-15 21:00N 46°48' W 071°12'0 0.0 030 / 1990.7 -1.4-1.7
2017-Mar-15 20:00N 46°48' W 071°12'0 0.0 170 / 4990.6 -1.6-2.3
2017-Mar-15 19:00N 46°48' W 071°12'0 0.0 240 / 2990.2 -1.6-2.4
2017-Mar-15 18:00N 46°48' W 071°12'0 0.0 010 / 3989.8 -1.5-2.1
2017-Mar-15 17:00N 46°48' W 071°12'0 0.0 020 / 7989.6 -1.9-3.1
2017-Mar-15 16:00N 46°48' W 071°12'0 0.0 040 / 8989.3 -1.5-4.3
2017-Mar-15 15:00N 46°48' W 071°12'0 0.0 040 / 9989.2 -1.9-4.6
2017-Mar-15 14:00N 46°48' W 071°12'0 0.0 040 / 9989.0 -2.1-5.4
2017-Mar-15 13:00N 46°48' W 071°12'0 0.0 040 / 9988.8 -2.8-5.0
2017-Mar-15 12:00N 46°48' W 071°12'0 0.0 040 / 10988.7 -3.1-4.8
2017-Mar-15 11:00N 46°48' W 071°12'0 0.0 040 / 7988.5 -3.0-4.9
2017-Mar-15 10:00N 46°48' W 071°12'0 0.0 040 / 10988.7 -3.0-5.3
2017-Mar-15 09:00N 46°48' W 071°12'0 0.0 040 / 10989.4 -3.2-5.0
2017-Mar-15 08:00N 46°48' W 071°12'0 0.0 040 / 12989.8 -3.2-4.4
2017-Mar-15 07:00N 46°48' W 071°12'0 0.0 040 / 15991.0 -4.2-5.1
2017-Mar-15 06:00N 46°48' W 071°12'0 0.0 040 / 16992.9 -4.2-4.8
2017-Mar-15 05:00N 46°48' W 071°12'0 0.0 040 / 10995.4 -4.4-4.9
2017-Mar-15 03:00N 46°48' W 071°12'0 0.0 040 / 13998.8 -5.2-5.8
2017-Mar-15 02:00N 46°48' W 071°12'0 0.0 040 / 161001.4 -5.7-6.6
2017-Mar-15 01:00N 46°48' W 071°12'0 0.0 040 / 141005.4 -6.0-7.0
2017-Mar-15 00:00N 46°48' W 071°12'0 0.0 040 / 111009.3 -5.9-6.7
2017-Mar-14 23:00N 46°48' W 071°12'0 0.0 040 / 131011.5 -6.9-8.0
2017-Mar-14 22:00N 46°48' W 071°12'0 0.0 040 / 121015.6 -6.8-7.8
2017-Mar-14 21:00N 46°48' W 071°12'0 0.0 040 / 61017.6 -6.4-7.9
2017-Mar-14 20:00N 46°48' W 071°12'0 0.0 040 / 81018.9 -6.4-8.5
2017-Mar-14 19:00N 46°48' W 071°12'0 0.0 040 / 61021.7 -6.2-9.2
2017-Mar-14 18:00N 46°48' W 071°12'0 0.0 040 / 61024.0 -5.8-10.5
2017-Mar-14 17:00N 46°48' W 071°12'0 0.0 040 / 61026.2 -5.8-10.5
2017-Mar-14 16:00N 46°48' W 071°12'0 0.0 030 / 51027.0 -6.1-10.4
2017-Mar-14 15:00N 46°48' W 071°12'0 0.0 030 / 41027.8 -6.6-11.5
2017-Mar-14 14:00N 46°48' W 071°12'0 0.0 030 / 31028.1 -7.2-12.7
2017-Mar-14 13:00N 46°48' W 071°12'0 0.0 110 / 21029.2 -8.8-15.1
2017-Mar-14 12:00N 46°48' W 071°12'0 0.0 120 / 21029.9 -10.1-16.1
2017-Mar-14 11:00N 46°48' W 071°12'0 0.0 120 / 21029.0 -9.4-14.6
2017-Mar-14 10:00N 46°48' W 071°12'0 0.0 350 / 31030.3 -9.2-14.9
2017-Mar-14 09:00N 46°48' W 071°12'0 0.0 190 / 41029.7 -9.5-15.4
2017-Mar-14 08:00N 46°48' W 071°12'0 0.0 220 / 41029.3 -9.4-15.9
2017-Mar-14 07:00N 46°48' W 071°12'0 0.0 240 / 61029.2 -9.7-16.5
2017-Mar-14 06:00N 46°48' W 071°12'0 0.0 240 / 61029.7 -9.5-16.4
2017-Mar-14 05:00N 46°48' W 071°12'0 0.0 240 / 71030.4 -9.2-16.5
2017-Mar-14 04:00N 46°48' W 071°12'0 0.0 240 / 71030.8 -9.3-16.5
2017-Mar-14 03:00N 46°48' W 071°12'0 0.0 250 / 81030.8 -9.2-16.6
2017-Mar-14 02:00N 46°48' W 071°12'0 0.0 250 / 71031.0 -9.0-16.9
2017-Mar-14 01:00N 46°48' W 071°12'0 0.0 240 / 71030.6 -8.9-17.4
2017-Mar-14 00:00N 46°48' W 071°12'0 0.0 250 / 71030.1 -8.7-16.9
2017-Mar-13 23:00N 46°48' W 071°12'   230 / 71030.4 -8.5-17.9

Dump ship's entire track history